Time;durP1;ratioP1;P1;durP2;ratioP2;P2;SDS_P1;SDS_P2;PMS_P1;PMS_P2;Temp;Humidity;BMP_temperature;BMP_pressure;BME280_temperature;BME280_humidity;BME280_pressure;Samples;Min_cycle;Max_cycle;Signal;HPM_P1;HPM_P2
2021/07/30 00:02:20;;;;;;;12.73;5.20;;;;;;;14.87;70.49;101094.16;5025628;28;20022;-63
2021/07/30 00:04:46;;;;;;;12.50;5.55;;;;;;;14.84;70.67;101094.22;5027054;28;20053;-63
2021/07/30 00:07:11;;;;;;;10.27;5.03;;;;;;;14.80;71.00;101096.06;5045195;28;20053;-63
2021/07/30 00:09:37;;;;;;;9.68;5.25;;;;;;;14.80;70.09;101100.44;5043412;28;20049;-63
2021/07/30 00:12:03;;;;;;;8.82;5.00;;;;;;;14.82;70.15;101093.38;5044877;28;20108;-63
2021/07/30 00:14:28;;;;;;;17.63;5.90;;;;;;;14.82;69.85;101085.44;5045145;28;20461;-64
2021/07/30 00:16:53;;;;;;;9.77;5.00;;;;;;;14.82;69.63;101085.44;5045053;28;20028;-64
2021/07/30 00:19:19;;;;;;;17.02;5.68;;;;;;;14.81;70.08;101087.19;5077255;28;20033;-63
2021/07/30 00:21:44;;;;;;;11.30;5.18;;;;;;;14.80;70.00;101084.56;5045206;28;20036;-65
2021/07/30 00:24:09;;;;;;;10.77;4.80;;;;;;;14.81;69.64;101091.63;5044980;28;20033;-63
2021/07/30 00:26:35;;;;;;;12.52;5.60;;;;;;;14.79;69.59;101082.84;5044879;28;20040;-64
2021/07/30 00:29:00;;;;;;;12.88;5.60;;;;;;;14.74;69.21;101074.97;5048225;28;20037;-62
2021/07/30 00:31:25;;;;;;;19.67;5.22;;;;;;;14.74;69.85;101074.97;5048971;28;20033;-63
2021/07/30 00:33:51;;;;;;;11.18;5.50;;;;;;;14.77;69.94;101082.00;5049306;28;20492;-63
2021/07/30 00:36:16;;;;;;;9.27;5.32;;;;;;;14.73;69.76;101080.28;5048809;28;20440;-63
2021/07/30 00:38:41;;;;;;;11.50;5.70;;;;;;;14.72;69.88;101078.53;5049000;28;20025;-63
2021/07/30 00:41:07;;;;;;;12.57;5.05;;;;;;;14.72;69.80;101076.75;5046434;28;20055;-64
2021/07/30 00:43:32;;;;;;;11.50;5.32;;;;;;;14.69;70.57;101076.81;5048892;28;20592;-64
2021/07/30 00:45:59;;;;;;;11.00;5.28;;;;;;;14.71;70.30;101079.44;5048827;28;20029;-64
2021/07/30 00:48:25;;;;;;;14.77;5.25;;;;;;;14.70;69.76;101073.25;5048747;28;20040;-63
2021/07/30 00:50:52;;;;;;;9.48;4.80;;;;;;;14.71;69.80;101072.38;5047500;28;20439;-63
2021/07/30 00:53:19;;;;;;;11.60;5.68;;;;;;;14.72;70.05;101066.19;5048804;28;20025;-64
2021/07/30 00:55:47;;;;;;;11.85;5.40;;;;;;;14.69;70.61;101066.25;5048781;28;20033;-63
2021/07/30 00:58:14;;;;;;;14.18;5.45;;;;;;;14.65;70.98;101063.66;5048257;28;20064;-63
2021/07/30 01:00:43;;;;;;;12.75;5.22;;;;;;;14.58;71.26;101070.81;5048543;28;20056;-63
2021/07/30 01:03:09;;;;;;;8.90;4.70;;;;;;;14.53;71.42;101072.59;5048677;28;20033;-63
2021/07/30 01:05:35;;;;;;;11.38;5.00;;;;;;;14.48;71.57;101067.41;5066560;28;20106;-63
2021/07/30 01:08:02;;;;;;;12.60;5.20;;;;;;;14.45;71.94;101072.72;5068394;28;20049;-62
2021/07/30 01:10:28;;;;;;;8.68;4.53;;;;;;;14.41;71.28;101071.88;5049661;28;20061;-64
2021/07/30 01:12:55;;;;;;;11.10;5.22;;;;;;;14.38;71.69;101076.34;5017937;28;20076;-62
2021/07/30 01:15:20;;;;;;;14.63;5.53;;;;;;;14.34;71.87;101069.34;5036595;28;20045;-63
2021/07/30 01:17:46;;;;;;;13.77;5.57;;;;;;;14.34;72.33;101062.28;5046948;28;20026;-64
2021/07/30 01:20:12;;;;;;;13.60;5.43;;;;;;;14.34;71.62;101070.22;5048306;28;20029;-63
2021/07/30 01:22:57;;;;;;;11.80;5.20;;;;;;;14.29;72.22;101068.53;5048118;28;20379;-63
2021/07/30 01:25:24;;;;;;;11.45;5.43;;;;;;;14.26;71.95;101063.31;5048064;28;20041;-64
2021/07/30 01:27:50;;;;;;;14.43;5.53;;;;;;;14.20;71.87;101062.47;5047865;28;20021;-63
2021/07/30 01:30:18;;;;;;;11.80;5.43;;;;;;;14.18;72.69;101066.06;5048124;28;20026;-64
2021/07/30 01:32:44;;;;;;;16.25;5.25;;;;;;;14.14;72.59;101062.56;5047823;28;20049;-63
2021/07/30 01:35:10;;;;;;;10.82;5.40;;;;;;;14.12;72.52;101064.34;5047879;28;20089;-63
2021/07/30 01:37:36;;;;;;;14.43;5.55;;;;;;;14.15;72.69;101063.44;5047817;28;20033;-63
2021/07/30 01:40:02;;;;;;;8.18;4.88;;;;;;;14.17;72.37;101062.50;5045813;28;20041;-64
2021/07/30 01:42:27;;;;;;;11.00;4.93;;;;;;;14.17;72.35;101062.50;5047443;28;20030;-63
2021/07/30 01:44:54;;;;;;;12.02;4.75;;;;;;;14.16;72.56;101062.56;5047800;28;20057;-63
2021/07/30 01:47:20;;;;;;;18.38;5.15;;;;;;;14.16;72.35;101058.13;5047678;28;20033;-64
2021/07/30 01:49:49;;;;;;;14.43;5.05;;;;;;;14.17;72.74;101059.00;5047643;28;20029;-63
2021/07/30 01:52:15;;;;;;;12.65;5.25;;;;;;;14.18;72.97;101068.69;5047599;28;20022;-63
2021/07/30 01:54:40;;;;;;;13.23;5.13;;;;;;;14.19;73.17;101065.13;5029661;28;20053;-63
2021/07/30 01:57:06;;;;;;;14.23;5.15;;;;;;;14.16;72.68;101058.13;5047399;28;20033;-63
2021/07/30 01:59:31;;;;;;;10.68;4.78;;;;;;;14.15;73.29;101058.16;5047412;28;20049;-63
2021/07/30 02:01:57;;;;;;;10.70;5.10;;;;;;;14.14;73.52;101059.03;5047347;28;20040;-63
2021/07/30 02:04:23;;;;;;;12.52;5.18;;;;;;;14.13;73.23;101059.94;5047206;28;20053;-63
2021/07/30 02:06:48;;;;;;;10.80;4.85;;;;;;;14.08;73.51;101054.69;5047308;28;20041;-63
2021/07/30 02:09:14;;;;;;;13.02;5.55;;;;;;;14.08;72.87;101046.78;5045275;28;20633;-62
2021/07/30 02:11:41;;;;;;;14.75;5.53;;;;;;;14.08;73.26;101038.84;5046623;28;20035;-63
2021/07/30 02:14:16;;;;;;;13.05;5.20;;;;;;;14.09;73.87;101039.75;5047195;28;20125;-64
2021/07/30 02:16:53;;;;;;;15.68;4.82;;;;;;;14.07;74.00;101044.19;5047385;28;20104;-63
2021/07/30 02:19:20;;;;;;;16.35;5.10;;;;;;;14.03;73.82;101036.28;5046944;28;20018;-63
2021/07/30 02:21:46;;;;;;;15.80;5.72;;;;;;;14.01;73.97;101042.47;5047125;28;20033;-63
2021/07/30 02:24:12;;;;;;;15.63;5.30;;;;;;;13.98;74.10;101040.72;5046963;28;20041;-64
2021/07/30 02:26:37;;;;;;;15.00;4.95;;;;;;;13.98;74.38;101038.09;5047052;28;20025;-63
2021/07/30 02:29:03;;;;;;;8.07;5.00;;;;;;;13.98;74.36;101035.44;5046901;28;20041;-63
2021/07/30 02:31:29;;;;;;;11.90;4.65;;;;;;;13.95;74.75;101031.97;5047061;28;20041;-63
2021/07/30 02:33:55;;;;;;;14.48;5.82;;;;;;;13.94;75.08;101025.81;5046908;28;20030;-62
2021/07/30 02:36:20;;;;;;;11.77;5.18;;;;;;;13.90;74.95;101032.03;5046917;28;20029;-62
2021/07/30 02:38:46;;;;;;;16.80;4.93;;;;;;;13.88;74.46;101038.25;5046482;28;20032;-63
2021/07/30 02:41:12;;;;;;;15.48;5.50;;;;;;;13.84;74.90;101038.28;5033787;28;20038;-63
2021/07/30 02:43:37;;;;;;;13.38;5.13;;;;;;;13.83;75.04;101027.72;5026766;28;20045;-62
2021/07/30 02:46:03;;;;;;;14.80;5.95;;;;;;;13.84;74.73;101026.84;5026790;28;20038;-63
2021/07/30 02:48:28;;;;;;;17.55;5.25;;;;;;;13.87;74.57;101025.91;5026706;28;20030;-63
2021/07/30 02:50:53;;;;;;;14.80;4.88;;;;;;;13.89;74.17;101021.50;5026244;28;20037;-63
2021/07/30 02:53:19;;;;;;;15.00;5.28;;;;;;;13.90;74.78;101020.59;5027478;28;20094;-64
2021/07/30 02:55:47;;;;;;;12.02;5.10;;;;;;;13.90;74.74;101026.75;5046356;28;20057;-63
2021/07/30 02:58:13;;;;;;;19.25;5.53;;;;;;;13.90;74.77;101016.19;5046229;28;20037;-63
2021/07/30 03:00:39;;;;;;;16.08;6.07;;;;;;;13.89;74.55;101013.56;5046416;28;20029;-63
2021/07/30 03:03:05;;;;;;;10.52;4.82;;;;;;;13.89;75.32;101010.91;5046405;28;20071;-63
2021/07/30 03:05:30;;;;;;;13.35;5.60;;;;;;;13.87;74.37;101008.28;5046015;28;20053;-63
2021/07/30 03:07:55;;;;;;;12.88;5.25;;;;;;;13.87;75.77;101010.94;5046302;28;20025;-62
2021/07/30 03:10:20;;;;;;;15.93;5.47;;;;;;;13.89;74.53;101011.78;5043714;28;20116;-64
2021/07/30 03:12:46;;;;;;;10.95;5.20;;;;;;;13.89;74.99;101014.44;5046076;28;20049;-62
2021/07/30 03:15:11;;;;;;;11.43;5.15;;;;;;;13.91;74.60;101011.78;5046095;28;20032;-62
2021/07/30 03:17:36;;;;;;;12.65;5.60;;;;;;;13.87;74.86;101005.66;5045939;28;20051;-62
2021/07/30 03:20:05;;;;;;;11.48;5.50;;;;;;;13.86;74.68;101001.28;5045808;28;20037;-62
2021/07/30 03:22:31;;;;;;;13.55;6.05;;;;;;;13.87;74.77;100999.50;5046040;28;20025;-63
2021/07/30 03:24:57;;;;;;;18.00;5.70;;;;;;;13.88;74.60;100996.84;5045859;28;20048;-63
2021/07/30 03:27:23;;;;;;;12.55;5.50;;;;;;;13.88;75.35;100993.34;5045851;28;20053;-63
2021/07/30 03:29:48;;;;;;;14.75;5.22;;;;;;;13.89;75.53;100998.59;5045608;28;20037;-62
2021/07/30 03:32:14;;;;;;;10.40;5.30;;;;;;;13.91;74.93;100998.56;5045797;28;20052;-63
2021/07/30 03:34:39;;;;;;;16.95;5.75;;;;;;;13.92;75.32;100998.56;5045835;28;20033;-62
2021/07/30 03:37:04;;;;;;;10.98;5.00;;;;;;;13.94;75.34;101001.19;5045859;28;20528;-62
2021/07/30 03:39:30;;;;;;;15.45;6.10;;;;;;;13.97;75.70;101001.13;5043910;28;20025;-63
2021/07/30 03:41:55;;;;;;;13.68;5.60;;;;;;;13.98;75.12;101005.53;5045470;28;20041;-62
2021/07/30 03:44:21;;;;;;;16.40;5.55;;;;;;;14.01;75.69;101002.84;5045507;28;20037;-63
2021/07/30 03:46:46;;;;;;;10.52;5.07;;;;;;;14.03;75.33;100998.41;5045396;28;20491;-62
2021/07/30 03:49:11;;;;;;;17.33;6.10;;;;;;;14.09;74.72;100995.69;5045305;28;20033;-62
2021/07/30 03:51:37;;;;;;;13.57;6.03;;;;;;;14.10;74.77;101000.09;5045411;28;20029;-64
2021/07/30 03:54:02;;;;;;;16.52;5.75;;;;;;;14.14;75.22;101003.53;5045220;28;20500;-63
2021/07/30 03:56:28;;;;;;;16.73;6.40;;;;;;;14.20;75.19;101011.41;5045372;28;20029;-62
2021/07/30 03:58:53;;;;;;;15.23;5.32;;;;;;;14.26;74.32;101010.44;5044990;28;20029;-63
2021/07/30 04:01:18;;;;;;;15.10;5.35;;;;;;;14.30;74.79;101014.78;5045495;28;20026;-63
2021/07/30 04:03:44;;;;;;;17.15;5.85;;;;;;;14.33;74.60;101002.41;5044171;28;20112;-62
2021/07/30 04:06:11;;;;;;;14.07;5.82;;;;;;;14.38;74.94;100989.97;5045399;28;20034;-62
2021/07/30 04:08:36;;;;;;;16.60;5.82;;;;;;;14.39;74.97;100994.38;5045190;28;20033;-64
2021/07/30 04:11:03;;;;;;;13.77;5.50;;;;;;;14.41;74.43;100994.34;5030249;28;20037;-63
2021/07/30 04:13:30;;;;;;;14.57;5.80;;;;;;;14.44;74.63;100983.72;5025465;28;20026;-63
2021/07/30 04:16:00;;;;;;;12.65;6.10;;;;;;;14.42;74.93;100980.22;5025394;28;20088;-64
2021/07/30 04:18:26;;;;;;;14.85;5.78;;;;;;;14.42;74.33;100981.13;5025142;28;20034;-62
2021/07/30 04:20:51;;;;;;;14.18;5.32;;;;;;;14.42;75.08;100959.97;5025160;28;20101;-62
2021/07/30 04:23:16;;;;;;;10.73;5.82;;;;;;;14.45;74.64;100966.09;5025263;28;20033;-63
2021/07/30 04:25:42;;;;;;;9.75;5.45;;;;;;;14.49;75.24;100971.31;5025217;28;20044;-62
2021/07/30 04:28:08;;;;;;;16.80;5.25;;;;;;;14.50;74.35;100965.13;5025218;28;20406;-62
2021/07/30 04:30:33;;;;;;;18.38;5.93;;;;;;;14.55;74.07;100967.69;5025106;28;20044;-64
2021/07/30 04:32:59;;;;;;;14.48;6.22;;;;;;;14.59;73.78;100974.69;5024009;28;20034;-65
2021/07/30 04:35:24;;;;;;;11.02;5.10;;;;;;;14.63;73.42;100971.13;5025317;28;20041;-63
2021/07/30 04:37:50;;;;;;;18.50;5.85;;;;;;;14.69;73.34;100964.84;5025045;28;20022;-63
2021/07/30 04:40:15;;;;;;;11.25;5.55;;;;;;;14.71;73.14;100960.44;5028859;28;20034;-63
2021/07/30 04:42:40;;;;;;;18.50;6.47;;;;;;;14.73;73.23;100964.78;5025034;28;20117;-62
2021/07/30 04:45:06;;;;;;;15.10;6.70;;;;;;;14.73;73.16;100956.84;5025083;28;20034;-63
2021/07/30 04:47:32;;;;;;;17.85;6.18;;;;;;;14.74;73.49;100952.41;5025235;28;20061;-63
2021/07/30 04:49:57;;;;;;;15.52;6.00;;;;;;;14.75;73.70;100962.13;5024825;28;20112;-62
2021/07/30 04:52:22;;;;;;;15.00;6.28;;;;;;;14.77;74.21;100950.59;5041262;28;20040;-63
2021/07/30 04:54:48;;;;;;;13.77;6.47;;;;;;;14.79;74.39;100945.28;5044714;28;20033;-63
2021/07/30 04:57:14;;;;;;;20.23;5.93;;;;;;;14.81;74.13;100948.78;5026980;28;20049;-63
2021/07/30 04:59:39;;;;;;;14.27;6.45;;;;;;;14.85;73.84;100949.59;5044507;28;20041;-62
2021/07/30 05:02:09;;;;;;;15.18;6.03;;;;;;;14.88;73.73;100947.78;5044755;28;20473;-63
2021/07/30 05:04:35;;;;;;;12.00;6.18;;;;;;;14.89;74.15;100941.56;5044542;28;20057;-63
2021/07/30 05:07:00;;;;;;;11.80;6.88;;;;;;;14.92;73.66;100946.81;5044792;28;20040;-63
2021/07/30 05:09:25;;;;;;;13.80;6.82;;;;;;;14.95;73.31;100951.16;5042406;28;20112;-62
2021/07/30 05:11:50;;;;;;;16.63;6.72;;;;;;;14.97;73.02;100947.63;5025011;28;20097;-62
2021/07/30 05:14:16;;;;;;;12.93;6.90;;;;;;;15.01;73.30;100945.78;5026552;28;20044;-62
2021/07/30 05:16:41;;;;;;;18.20;6.45;;;;;;;15.04;73.60;100936.91;5028518;28;20025;-63
2021/07/30 05:19:06;;;;;;;16.95;6.72;;;;;;;15.09;73.84;100948.28;5028411;28;20412;-64
2021/07/30 05:21:32;;;;;;;15.27;6.18;;;;;;;15.14;73.73;100938.47;5028347;28;20432;-63
2021/07/30 05:23:58;;;;;;;14.57;6.72;;;;;;;15.17;72.58;100941.94;5028323;28;20049;-65
2021/07/30 05:26:23;;;;;;;12.48;5.93;;;;;;;15.24;71.94;100928.59;5028210;28;20060;-63
2021/07/30 05:28:49;;;;;;;13.70;5.93;;;;;;;15.28;72.78;100935.56;5028235;28;20089;-64
2021/07/30 05:31:17;;;;;;;10.90;5.85;;;;;;;15.33;72.41;100934.59;5028069;28;20030;-63
2021/07/30 05:33:43;;;;;;;18.25;6.57;;;;;;;15.39;72.53;100936.22;5028224;28;20033;-63
2021/07/30 05:36:15;;;;;;;12.80;5.90;;;;;;;15.45;71.37;100938.75;5028089;28;20088;-62
2021/07/30 05:38:41;;;;;;;13.10;6.07;;;;;;;15.50;70.86;100926.28;5027954;28;20037;-63
2021/07/30 05:41:09;;;;;;;14.90;5.90;;;;;;;15.58;71.06;100931.44;5045136;28;20038;-64
2021/07/30 05:43:34;;;;;;;16.30;6.40;;;;;;;15.64;70.53;100930.44;5047982;28;20029;-62
2021/07/30 05:46:01;;;;;;;13.15;5.45;;;;;;;15.75;70.60;100931.09;5047761;28;20044;-63
2021/07/30 05:48:27;;;;;;;11.70;5.40;;;;;;;15.83;69.45;100923.00;5047578;28;20388;-63
2021/07/30 05:50:52;;;;;;;11.18;5.38;;;;;;;15.92;69.20;100925.44;5047359;28;20038;-63
2021/07/30 05:53:17;;;;;;;14.57;5.85;;;;;;;15.91;69.22;100927.19;5047586;28;20025;-64
2021/07/30 05:55:43;;;;;;;11.50;5.47;;;;;;;15.93;68.78;100919.22;5047712;28;20124;-63
2021/07/30 05:58:08;;;;;;;13.98;5.72;;;;;;;15.97;69.37;100919.13;5047273;28;20034;-63
2021/07/30 06:00:33;;;;;;;14.02;5.93;;;;;;;16.03;69.40;100922.53;5044241;28;20060;-63
2021/07/30 06:02:59;;;;;;;12.80;5.78;;;;;;;16.07;69.55;100922.44;5047271;28;20432;-64
2021/07/30 06:05:24;;;;;;;14.95;6.07;;;;;;;16.11;69.95;100923.25;5047090;28;20059;-62
2021/07/30 06:07:49;;;;;;;12.98;5.90;;;;;;;16.14;67.65;100916.09;5047357;28;20036;-62
2021/07/30 06:10:15;;;;;;;15.15;5.65;;;;;;;16.20;67.74;100909.78;5045186;28;20026;-63
2021/07/30 06:12:40;;;;;;;13.05;5.53;;;;;;;16.25;68.65;100915.81;5047048;28;20052;-62
2021/07/30 06:15:06;;;;;;;15.45;6.10;;;;;;;16.31;68.80;100913.03;5047183;28;20055;-63
2021/07/30 06:17:31;;;;;;;13.52;5.60;;;;;;;16.35;68.13;100901.44;5046962;28;20046;-62
2021/07/30 06:19:57;;;;;;;12.70;5.57;;;;;;;16.42;67.84;100904.78;5047256;28;20034;-63
2021/07/30 06:22:22;;;;;;;12.10;5.40;;;;;;;16.50;67.46;100902.84;5046794;28;20040;-62
2021/07/30 06:24:47;;;;;;;14.80;5.70;;;;;;;16.57;67.61;100900.88;5046501;28;20040;-63
2021/07/30 06:27:15;;;;;;;13.43;5.53;;;;;;;16.58;66.57;100897.34;5046430;28;20096;-62
2021/07/30 06:29:40;;;;;;;12.75;5.20;;;;;;;16.66;65.56;100894.47;5046860;28;20025;-63
2021/07/30 06:32:06;;;;;;;17.60;6.90;;;;;;;16.71;65.65;100893.44;5046729;28;20105;-64
2021/07/30 06:34:32;;;;;;;13.88;5.55;;;;;;;16.78;65.92;100894.13;5046805;28;20033;-62
2021/07/30 06:36:58;;;;;;;15.73;5.43;;;;;;;16.83;67.40;100889.63;5046805;28;20473;-62
2021/07/30 06:39:24;;;;;;;13.02;5.30;;;;;;;16.94;66.73;100889.34;5045320;28;20029;-63
2021/07/30 06:41:50;;;;;;;10.85;5.10;;;;;;;17.03;65.25;100886.44;5045976;28;20041;-63
2021/07/30 06:44:15;;;;;;;9.68;4.88;;;;;;;17.11;65.25;100886.22;5046614;28;20034;-63
2021/07/30 06:46:40;;;;;;;15.32;5.05;;;;;;;17.19;65.13;100888.66;5046575;28;20037;-62
2021/07/30 06:49:06;;;;;;;9.18;4.78;;;;;;;17.26;63.63;100885.78;5046230;28;20438;-64
2021/07/30 06:51:31;;;;;;;12.38;4.85;;;;;;;17.39;63.69;100878.34;5046400;28;20068;-62
2021/07/30 06:53:57;;;;;;;10.40;4.63;;;;;;;17.58;63.26;100885.75;5046358;28;20085;-62
2021/07/30 06:56:22;;;;;;;10.20;4.50;;;;;;;17.74;61.42;100877.25;5046245;28;20053;-63
2021/07/30 06:58:47;;;;;;;9.93;4.57;;;;;;;17.88;62.14;100874.22;5046347;28;20041;-63
2021/07/30 07:01:14;;;;;;;12.20;4.63;;;;;;;18.00;60.84;100878.28;5046200;28;20030;-62
2021/07/30 07:03:39;;;;;;;16.02;4.60;;;;;;;18.01;61.17;100865.84;5038380;28;20042;-63
2021/07/30 07:06:04;;;;;;;9.30;4.43;;;;;;;18.01;60.92;100865.84;5039037;28;20050;-63
2021/07/30 07:08:30;;;;;;;12.43;4.20;;;;;;;18.05;60.72;100864.81;5046243;28;20100;-63
2021/07/30 07:10:55;;;;;;;11.60;4.22;;;;;;;17.99;61.61;100857.91;5041070;28;20022;-62
2021/07/30 07:13:20;;;;;;;9.48;4.28;;;;;;;17.97;62.05;100866.84;5045846;28;20037;-62
2021/07/30 07:15:46;;;;;;;14.55;5.43;;;;;;;17.96;61.81;100859.78;5045964;28;20037;-65
2021/07/30 07:18:12;;;;;;;7.78;4.70;;;;;;;17.90;61.28;100853.78;5046070;28;20751;-64
2021/07/30 07:20:41;;;;;;;7.68;3.92;;;;;;;17.87;60.89;100847.69;5045944;28;20408;-63
2021/07/30 07:23:07;;;;;;;10.90;4.13;;;;;;;17.90;61.01;100840.47;5045769;28;20033;-62
2021/07/30 07:25:33;;;;;;;10.48;3.95;;;;;;;18.00;61.02;100840.19;5044555;28;20044;-62
2021/07/30 07:27:58;;;;;;;9.15;4.55;;;;;;;18.08;61.13;100846.13;5045948;28;20057;-62
2021/07/30 07:30:24;;;;;;;9.52;4.20;;;;;;;18.14;60.76;100843.25;5045793;28;20040;-62
2021/07/30 07:32:49;;;;;;;9.88;4.70;;;;;;;18.17;59.98;100835.19;5045565;28;20061;-62
2021/07/30 07:35:14;;;;;;;10.50;4.03;;;;;;;18.21;59.34;100836.81;5045668;28;20029;-62
2021/07/30 07:37:40;;;;;;;9.50;4.47;;;;;;;18.31;60.25;100830.25;5060618;28;20033;-63
2021/07/30 07:40:07;;;;;;;10.20;5.07;;;;;;;18.35;61.64;100830.16;5040692;28;20046;-62
2021/07/30 07:42:32;;;;;;;10.98;4.47;;;;;;;18.34;60.71;100826.63;5045038;28;20037;-63
2021/07/30 07:44:58;;;;;;;11.63;4.60;;;;;;;18.39;60.55;100829.13;5042470;28;20033;-62
2021/07/30 07:47:23;;;;;;;12.82;4.90;;;;;;;18.48;60.13;100819.03;5045072;28;20064;-63
2021/07/30 07:49:48;;;;;;;10.80;4.40;;;;;;;18.56;59.47;100824.06;5027523;28;20044;-63
2021/07/30 07:52:14;;;;;;;11.75;4.45;;;;;;;18.59;58.85;100813.34;5045160;28;20025;-62
2021/07/30 07:54:39;;;;;;;13.02;4.63;;;;;;;18.63;59.40;100817.63;5045212;28;20505;-62
2021/07/30 07:57:05;;;;;;;10.23;4.40;;;;;;;18.70;60.76;100813.81;5045222;28;20025;-63
2021/07/30 07:59:38;;;;;;;14.00;4.80;;;;;;;18.71;59.91;100817.34;5045002;28;20044;-63
2021/07/30 08:02:06;;;;;;;11.35;4.38;;;;;;;18.75;60.30;100812.78;5044998;28;20389;-63
2021/07/30 08:04:32;;;;;;;13.23;4.78;;;;;;;18.75;59.89;100818.09;5044849;28;20150;-64
2021/07/30 08:07:01;;;;;;;11.93;4.47;;;;;;;18.76;59.77;100817.19;5045017;28;20025;-63
2021/07/30 08:09:27;;;;;;;9.52;4.32;;;;;;;18.75;59.31;100813.66;5042434;28;20080;-63
2021/07/30 08:11:52;;;;;;;10.98;4.32;;;;;;;18.80;58.90;100810.84;5032759;28;20029;-63
2021/07/30 08:14:17;;;;;;;9.43;4.47;;;;;;;18.91;59.32;100814.00;5043226;28;20061;-64
2021/07/30 08:16:45;;;;;;;10.52;4.60;;;;;;;18.95;59.06;100804.97;5044983;28;20229;-63
2021/07/30 08:19:11;;;;;;;13.25;4.30;;;;;;;19.06;59.18;100801.91;5044893;28;20040;-63
2021/07/30 08:21:36;;;;;;;7.88;3.78;;;;;;;19.17;58.17;100802.38;5044606;28;20057;-63
2021/07/30 08:24:01;;;;;;;10.35;4.28;;;;;;;19.27;58.10;100795.75;5044715;28;20040;-63
2021/07/30 08:26:27;;;;;;;9.05;3.75;;;;;;;19.40;58.66;100795.28;5045032;28;20033;-63
2021/07/30 08:28:52;;;;;;;7.72;3.83;;;;;;;19.50;57.62;100788.66;5044832;28;20060;-63
2021/07/30 08:31:26;;;;;;;7.97;3.80;;;;;;;19.59;58.31;100792.78;5044929;28;20505;-63
2021/07/30 08:33:52;;;;;;;9.70;4.05;;;;;;;19.76;58.32;100792.13;5044379;28;20038;-63
2021/07/30 08:36:18;;;;;;;11.30;3.38;;;;;;;19.87;57.20;100792.56;5044565;28;20030;-63
2021/07/30 08:38:43;;;;;;;8.57;3.60;;;;;;;19.87;58.64;100787.22;5044658;28;20480;-63
2021/07/30 08:41:09;;;;;;;9.23;3.80;;;;;;;19.93;56.92;100773.63;5042839;28;20041;-62
2021/07/30 08:43:35;;;;;;;7.13;3.78;;;;;;;19.96;56.22;100781.50;5044513;28;20029;-62
2021/07/30 08:46:00;;;;;;;7.50;3.60;;;;;;;20.02;56.37;100775.06;5044609;28;20120;-62
2021/07/30 08:48:26;;;;;;;8.07;3.22;;;;;;;19.90;55.74;100770.22;5044992;28;20031;-62
2021/07/30 08:50:51;;;;;;;5.57;3.17;;;;;;;19.86;55.95;100769.47;5048449;28;20063;-63
2021/07/30 08:53:22;;;;;;;5.60;3.08;;;;;;;19.88;55.72;100764.09;5048427;28;20022;-63
2021/07/30 08:55:47;;;;;;;5.88;3.08;;;;;;;19.89;55.50;100753.38;5048565;28;20022;-61
2021/07/30 08:58:13;;;;;;;10.93;3.13;;;;;;;19.80;56.65;100746.59;5048406;28;20096;-61
2021/07/30 09:00:39;;;;;;;6.40;3.15;;;;;;;19.83;56.38;100749.16;5048374;28;20059;-63
2021/07/30 09:03:04;;;;;;;5.75;3.50;;;;;;;19.83;56.13;100749.16;5048121;28;20026;-62
2021/07/30 09:05:35;;;;;;;7.97;3.13;;;;;;;19.92;55.18;100745.22;5048000;28;20061;-62
2021/07/30 09:08:02;;;;;;;26.13;5.18;;;;;;;19.92;56.03;100739.03;5048229;28;20100;-63
2021/07/30 09:10:29;;;;;;;8.77;3.53;;;;;;;19.87;56.38;100744.56;5045718;28;20033;-62
2021/07/30 09:13:19;;;;;;;8.30;3.20;;;;;;;19.84;56.78;100739.34;5047982;28;20059;-62
2021/07/30 09:15:47;;;;;;;8.07;2.88;;;;;;;19.90;55.95;100736.41;5047985;28;20026;-62
2021/07/30 09:18:33;;;;;;;8.80;2.75;;;;;;;19.96;55.71;100738.84;5047942;28;20029;-62
2021/07/30 09:21:31;;;;;;;7.28;3.58;;;;;;;19.97;55.76;100732.56;5047898;28;20030;-63
2021/07/30 09:24:04;;;;;;;6.22;2.95;;;;;;;19.94;56.22;100745.16;5047645;28;20017;-62
2021/07/30 09:26:42;;;;;;;6.97;3.00;;;;;;;19.95;55.62;100731.75;5047843;28;20040;-62
2021/07/30 09:29:13;;;;;;;8.27;3.07;;;;;;;20.02;55.47;100733.25;5048085;28;20025;-62
2021/07/30 09:31:49;;;;;;;8.32;3.25;;;;;;;20.03;55.01;100726.97;5048009;28;20029;-63
2021/07/30 09:34:31;;;;;;;7.40;3.38;;;;;;;20.02;54.91;100721.72;5047402;28;20041;-62
2021/07/30 09:37:03;;;;;;;6.85;3.42;;;;;;;20.09;55.34;100717.81;5047839;28;20037;-63
2021/07/30 09:39:32;;;;;;;7.03;3.33;;;;;;;20.10;56.34;100713.38;5046154;28;20178;-62
2021/07/30 09:42:04;;;;;;;5.30;3.30;;;;;;;20.24;55.81;100717.19;5046025;28;20038;-62
2021/07/30 09:44:31;;;;;;;7.85;3.25;;;;;;;20.44;56.40;100715.44;5047351;28;20036;-62
2021/07/30 09:47:06;;;;;;;9.20;3.40;;;;;;;20.63;56.41;100710.16;5047594;28;20040;-61
2021/07/30 09:49:38;;;;;;;6.35;3.50;;;;;;;20.83;55.22;100710.09;5047705;28;20036;-62
2021/07/30 09:52:08;;;;;;;8.35;3.40;;;;;;;20.97;53.30;100701.44;5047618;28;20028;-62
2021/07/30 09:54:35;;;;;;;8.38;3.10;;;;;;;21.07;54.01;100701.84;5047252;28;20037;-63
2021/07/30 09:57:02;;;;;;;5.38;3.00;;;;;;;21.13;53.80;100703.38;5047352;28;20060;-62
2021/07/30 09:59:30;;;;;;;6.45;3.60;;;;;;;21.15;53.67;100704.16;5046983;28;20053;-61
2021/07/30 10:01:56;;;;;;;3.85;2.70;;;;;;;21.11;54.09;100700.75;5046312;28;20036;-62
2021/07/30 10:04:24;;;;;;;6.85;3.05;;;;;;;21.18;53.71;100706.69;5047112;28;20041;-62
2021/07/30 10:06:50;;;;;;;4.83;3.03;;;;;;;21.23;53.24;100696.66;5047455;28;20030;-63
2021/07/30 10:09:18;;;;;;;5.13;3.35;;;;;;;21.28;54.03;100702.63;5045865;28;20041;-63
2021/07/30 10:11:44;;;;;;;6.30;3.28;;;;;;;21.41;54.69;100705.56;5046499;28;20053;-62
2021/07/30 10:14:11;;;;;;;5.90;3.20;;;;;;;21.49;53.75;100697.22;5046827;28;20022;-62
2021/07/30 10:16:49;;;;;;;4.72;3.05;;;;;;;21.60;53.11;100690.38;5047041;28;20026;-62
2021/07/30 10:19:16;;;;;;;5.82;3.15;;;;;;;21.54;53.17;100688.00;5047158;28;20033;-62
2021/07/30 10:21:41;;;;;;;7.07;3.28;;;;;;;21.45;52.24;100687.63;5047148;28;20091;-62
2021/07/30 10:24:08;;;;;;;7.20;3.50;;;;;;;21.14;54.47;100679.25;5046709;28;20030;-61
2021/07/30 10:26:34;;;;;;;6.70;3.38;;;;;;;20.99;54.20;100688.88;5047011;28;20137;-62
2021/07/30 10:29:00;;;;;;;4.88;3.53;;;;;;;20.84;54.78;100684.25;5046701;28;20116;-62
2021/07/30 10:31:49;;;;;;;6.85;3.03;;;;;;;20.71;54.27;100688.44;5046958;28;20025;-61
2021/07/30 10:34:15;;;;;;;4.70;3.35;;;;;;;20.61;55.03;100688.84;5046733;28;20412;-62
2021/07/30 10:36:41;;;;;;;8.43;3.08;;;;;;;20.54;55.54;100687.38;5046921;28;20028;-62
2021/07/30 10:39:12;;;;;;;8.32;3.55;;;;;;;20.52;54.98;100681.25;5044878;28;20053;-61
2021/07/30 10:42:00;;;;;;;4.88;2.88;;;;;;;20.45;54.58;100683.34;5046020;28;20141;-62
2021/07/30 10:44:26;;;;;;;6.13;3.35;;;;;;;20.33;55.56;100680.34;5046292;28;20056;-61
2021/07/30 10:47:21;;;;;;;6.40;3.83;;;;;;;20.19;55.99;100687.16;5046689;28;20038;-62
2021/07/30 10:49:46;;;;;;;7.15;3.80;;;;;;;20.11;55.90;100678.63;5046486;28;20083;-62
2021/07/30 10:52:24;;;;;;;8.18;3.70;;;;;;;20.06;56.24;100685.97;5046413;28;20021;-63
2021/07/30 10:54:49;;;;;;;6.35;3.70;;;;;;;20.04;56.75;100679.84;5046304;28;20022;-62
2021/07/30 10:57:48;;;;;;;5.57;3.50;;;;;;;20.08;57.01;100676.09;5046385;28;20400;-62
2021/07/30 11:00:14;;;;;;;4.55;3.70;;;;;;;20.07;57.33;100674.34;5046353;28;20103;-62
2021/07/30 11:02:59;;;;;;;7.55;3.90;;;;;;;20.17;57.12;100685.47;5045681;28;20065;-62
2021/07/30 11:05:24;;;;;;;4.15;3.42;;;;;;;20.21;56.97;100687.09;5045409;28;20049;-62
2021/07/30 11:07:58;;;;;;;7.68;4.03;;;;;;;20.16;57.16;100692.63;5046253;28;20068;-62
2021/07/30 11:10:24;;;;;;;7.45;4.45;;;;;;;20.00;57.88;100680.88;5039080;28;20033;-62
2021/07/30 11:12:53;;;;;;;7.47;4.30;;;;;;;19.89;58.05;100691.19;5034803;28;20034;-63
2021/07/30 11:15:19;;;;;;;8.18;4.15;;;;;;;19.81;59.01;100686.16;5033308;28;20084;-62
2021/07/30 11:17:50;;;;;;;6.93;3.75;;;;;;;19.74;58.97;100693.56;5033776;28;20041;-62
2021/07/30 11:20:16;;;;;;;8.10;4.32;;;;;;;19.64;59.05;100686.81;5033766;28;20045;-62